Easley, Missouri
Current Conditions -  °F | °C
As of 11:54 AM on Wednesday 28 Jan 2015 (Local Time) from KCOU Reporting Station
Clear Clear  
Wind Chill: 50°   Ceiling: Unl
Heat Index: 50°   Visibility: 10mi
Dew Point: 34°   Wind: 22mph
Humidity: 54%   Direction: 160°SSE
Pressure: 30.02"   Gusts: 26mph
Location:  38.895°N, 92.3958°W
Report Text: KCOU 281754Z 16019G23KT 10SM CLR 10/01 A3002 RMK AO2 SLP168 T01000011 10106 21006 58023
Loading
Personal Weather Stations






























Interactive Weather Map New forecast layout! Learn more

10-Day Weather Forecast

Advertisements
Track Severe Weather on mobile